createdAt,value
2023-08-11T00:01:34.438Z,98291.63
2023-08-11T00:06:35.729Z,98290.63
2023-08-11T00:11:36.979Z,98288.22
2023-08-11T00:16:38.350Z,98291.84
2023-08-11T00:21:39.647Z,98286.25
2023-08-11T00:26:41.083Z,98282.00
2023-08-11T00:31:43.091Z,98288.00
2023-08-11T00:36:44.520Z,98291.09
2023-08-11T00:41:47.133Z,98284.09
2023-08-11T00:46:48.973Z,98289.34
2023-08-11T00:51:50.359Z,98285.34
2023-08-11T00:56:51.910Z,98286.38
2023-08-11T01:01:53.179Z,98279.69
2023-08-11T01:06:54.530Z,98276.88
2023-08-11T01:11:55.806Z,98282.94
2023-08-11T01:16:57.082Z,98280.84
2023-08-11T01:21:58.402Z,98282.28
2023-08-11T01:26:59.848Z,98286.88
2023-08-11T01:32:01.181Z,98289.66
2023-08-11T01:37:02.518Z,98295.41
2023-08-11T01:42:03.895Z,98291.44
2023-08-11T01:47:05.760Z,98289.91
2023-08-11T01:52:07.852Z,98289.38
2023-08-11T01:57:09.272Z,98291.41
2023-08-11T02:02:10.735Z,98287.13
2023-08-11T02:07:12.000Z,98292.06
2023-08-11T02:12:13.347Z,98289.22
2023-08-11T02:17:14.756Z,98285.88
2023-08-11T02:22:16.045Z,98290.00
2023-08-11T02:27:18.437Z,98293.56
2023-08-11T02:32:20.688Z,98294.56
2023-08-11T02:37:21.972Z,98303.84
2023-08-11T02:42:24.544Z,98314.31
2023-08-11T02:47:25.912Z,98318.22
2023-08-11T02:52:27.562Z,98322.88
2023-08-11T02:57:28.821Z,98310.69
2023-08-11T03:02:30.101Z,98311.00
2023-08-11T03:07:32.354Z,98302.03
2023-08-11T03:12:33.801Z,98307.69
2023-08-11T03:17:36.582Z,98307.25
2023-08-11T03:22:38.038Z,98311.34
2023-08-11T03:27:40.941Z,98314.03
2023-08-11T03:32:42.578Z,98316.22
2023-08-11T03:37:44.086Z,98323.19
2023-08-11T03:42:45.334Z,98325.53
2023-08-11T03:47:46.596Z,98331.16
2023-08-11T03:52:48.577Z,98326.78
2023-08-11T03:57:49.803Z,98334.41
2023-08-11T04:02:51.072Z,98331.66
2023-08-11T04:07:52.425Z,98334.84
2023-08-11T04:12:53.697Z,98333.69
2023-08-11T04:17:55.079Z,98340.34
2023-08-11T04:22:57.214Z,98337.81
2023-08-11T04:28:00.005Z,98333.50
2023-08-11T04:33:01.642Z,98345.16
2023-08-11T04:38:03.288Z,98349.56
2023-08-11T04:43:05.363Z,98348.59
2023-08-11T04:48:06.709Z,98353.44
2023-08-11T04:53:07.980Z,98350.22
2023-08-11T04:58:10.367Z,98355.63
2023-08-11T05:03:12.079Z,98352.28
2023-08-11T05:08:13.459Z,98356.66
2023-08-11T05:13:14.910Z,98360.41
2023-08-11T05:18:16.174Z,98364.16
2023-08-11T05:23:17.420Z,98369.78
2023-08-11T05:28:18.663Z,98369.50
2023-08-11T05:33:19.888Z,98383.59
2023-08-11T05:38:21.132Z,98380.81
2023-08-11T05:43:22.399Z,98383.06
2023-08-11T05:48:23.714Z,98382.53
2023-08-11T05:53:24.989Z,98382.47
2023-08-11T05:58:26.270Z,98380.22
2023-08-11T06:03:31.346Z,98373.88
2023-08-11T06:08:32.634Z,98373.53
2023-08-11T06:13:33.953Z,98371.91
2023-08-11T06:18:35.283Z,98353.19
2023-08-11T06:23:36.536Z,98348.66
2023-08-11T06:28:37.761Z,98350.28
2023-08-11T06:33:39.080Z,98347.19
2023-08-11T06:38:40.533Z,98342.28
2023-08-11T06:43:42.723Z,98345.47
2023-08-11T06:48:44.039Z,98351.16
2023-08-11T06:53:45.321Z,98357.50
2023-08-11T06:58:46.805Z,98351.38
2023-08-11T07:03:48.085Z,98355.28
2023-08-11T07:08:49.338Z,98359.81
2023-08-11T07:13:50.589Z,98351.50
2023-08-11T07:18:51.859Z,98353.72
2023-08-11T07:23:53.166Z,98344.66
2023-08-11T07:28:54.384Z,98344.53
2023-08-11T07:33:55.625Z,98349.50
2023-08-11T07:39:09.043Z,98358.03
2023-08-11T07:44:18.288Z,98357.53
2023-08-11T07:49:19.660Z,98349.63
2023-08-11T07:54:21.231Z,98355.16
2023-08-11T07:59:22.620Z,98358.09
2023-08-11T08:04:30.420Z,98359.19
2023-08-11T08:09:35.018Z,98354.47
2023-08-11T08:14:36.476Z,98351.41
2023-08-11T08:19:37.862Z,98346.50
2023-08-11T08:24:39.701Z,98346.91
2023-08-11T08:29:41.009Z,98343.75
2023-08-11T08:34:42.275Z,98347.06
2023-08-11T08:39:44.581Z,98338.09
2023-08-11T08:44:45.961Z,98333.88
2023-08-11T08:49:50.269Z,98337.38
2023-08-11T08:54:51.539Z,98341.56
2023-08-11T08:59:52.874Z,98342.94
2023-08-11T09:04:54.163Z,98330.44
2023-08-11T09:09:55.480Z,98317.34
2023-08-11T09:14:57.184Z,98306.47
2023-08-11T09:19:59.116Z,98309.72
2023-08-11T09:25:00.444Z,98288.97
2023-08-11T09:30:01.709Z,98299.09
2023-08-11T09:35:03.962Z,98290.03
2023-08-11T09:40:06.101Z,98299.25
2023-08-11T09:45:07.332Z,98295.38
2023-08-11T09:50:11.732Z,98288.25
2023-08-11T09:55:13.818Z,98285.75
2023-08-11T10:00:15.360Z,98285.16
2023-08-11T10:05:17.009Z,98271.13
2023-08-11T10:10:18.325Z,98281.78
2023-08-11T10:15:19.785Z,98269.53
2023-08-11T10:20:21.776Z,98270.91
2023-08-11T10:25:24.843Z,98256.31
2023-08-11T10:30:26.062Z,98260.09
2023-08-11T10:35:27.374Z,98259.69
2023-08-11T10:40:28.682Z,98264.81
2023-08-11T10:45:29.939Z,98254.06
2023-08-11T10:50:31.250Z,98254.28
2023-08-11T10:55:32.482Z,98239.19
2023-08-11T11:00:34.149Z,98249.91
2023-08-11T11:05:35.430Z,98240.59
2023-08-11T11:10:49.232Z,98233.94
2023-08-11T11:15:52.085Z,98244.50
2023-08-11T11:20:53.380Z,98237.84
2023-08-11T11:25:54.602Z,98231.78
2023-08-11T11:30:55.835Z,98223.63
2023-08-11T11:35:57.217Z,98221.41
2023-08-11T11:40:58.454Z,98220.72
2023-08-11T11:45:59.792Z,98221.94
2023-08-11T11:51:04.262Z,98223.59
2023-08-11T11:56:06.142Z,98211.78
2023-08-11T12:01:07.356Z,98198.38
2023-08-11T12:06:11.686Z,98203.03
2023-08-11T12:11:12.981Z,98201.91
2023-08-11T12:16:14.256Z,98197.13
2023-08-11T12:21:15.531Z,98196.44
2023-08-11T12:26:16.761Z,98196.25
2023-08-11T12:31:18.019Z,98202.19
2023-08-11T12:36:19.433Z,98198.63
2023-08-11T12:41:21.258Z,98180.81
2023-08-11T12:46:22.590Z,98177.19
2023-08-11T12:51:23.970Z,98184.53
2023-08-11T12:56:26.726Z,98182.84
2023-08-11T13:01:28.184Z,98187.47
2023-08-11T13:06:29.482Z,98189.59
2023-08-11T13:11:30.894Z,98182.88
2023-08-11T13:16:32.238Z,98175.31
2023-08-11T13:21:33.696Z,98185.69
2023-08-11T13:26:35.062Z,98183.72
2023-08-11T13:31:36.504Z,98165.28
2023-08-11T13:36:38.218Z,98165.16
2023-08-11T13:41:40.851Z,98161.19
2023-08-11T13:46:42.144Z,98168.97
2023-08-11T13:51:43.397Z,98165.34
2023-08-11T13:56:44.634Z,98166.34
2023-08-11T14:01:46.083Z,98160.84
2023-08-11T14:06:47.398Z,98155.53
2023-08-11T14:11:49.852Z,98158.53
2023-08-11T14:16:51.186Z,98155.81
2023-08-11T14:21:52.721Z,98143.19
2023-08-11T14:26:54.029Z,98150.31
2023-08-11T14:31:57.486Z,98142.41
2023-08-11T14:37:02.546Z,98151.97
2023-08-11T14:42:03.827Z,98139.56
2023-08-11T14:47:06.481Z,98138.16
2023-08-11T14:52:08.332Z,98139.38
2023-08-11T14:57:13.906Z,98138.50
2023-08-11T15:02:15.368Z,98131.88
2023-08-11T15:07:16.639Z,98135.75
2023-08-11T15:12:18.760Z,98133.63
2023-08-11T15:17:20.311Z,98124.78
2023-08-11T15:22:21.703Z,98125.47
2023-08-11T15:27:23.089Z,98115.38
2023-08-11T15:32:24.413Z,98116.91
2023-08-11T15:37:25.669Z,98116.63
2023-08-11T15:42:27.012Z,98114.28
2023-08-11T15:47:28.381Z,98108.66
2023-08-11T15:52:29.741Z,98118.06
2023-08-11T15:57:30.973Z,98108.28
2023-08-11T16:02:32.449Z,98104.75
2023-08-11T16:07:34.141Z,98125.22
2023-08-11T16:12:35.469Z,98134.22
2023-08-11T16:17:37.313Z,98136.63
2023-08-11T16:22:38.724Z,98141.66
2023-08-11T16:27:41.140Z,98147.91
2023-08-11T16:32:42.517Z,98145.13
2023-08-11T16:37:43.847Z,98146.44
2023-08-11T16:42:45.161Z,98137.63
2023-08-11T16:47:46.776Z,98132.59
2023-08-11T16:52:48.166Z,98122.91
2023-08-11T16:57:49.494Z,98116.47
2023-08-11T17:02:50.790Z,98115.28
2023-08-11T17:07:52.140Z,98116.59
2023-08-11T17:12:53.529Z,98124.22
2023-08-11T17:17:55.089Z,98118.78
2023-08-11T17:22:56.645Z,98118.47
2023-08-11T17:27:58.922Z,98116.19
2023-08-11T17:33:00.235Z,98124.25
2023-08-11T17:38:02.208Z,98136.59
2023-08-11T17:43:03.465Z,98142.91
2023-08-11T17:48:04.787Z,98151.13
2023-08-11T17:53:06.017Z,98148.88
2023-08-11T17:58:07.273Z,98148.13
2023-08-11T18:03:08.684Z,98150.53
2023-08-11T18:08:10.067Z,98148.97
2023-08-11T18:13:11.276Z,98151.84
2023-08-11T18:18:12.583Z,98151.59
2023-08-11T18:23:13.890Z,98153.44
2023-08-11T18:28:15.151Z,98165.91
2023-08-11T18:33:16.475Z,98161.44
2023-08-11T18:38:17.771Z,98168.78
2023-08-11T18:43:19.035Z,98168.78
2023-08-11T18:48:20.302Z,98177.03
2023-08-11T18:53:21.656Z,98181.09
2023-08-11T18:58:23.316Z,98189.38
2023-08-11T19:03:24.698Z,98194.31
2023-08-11T19:08:26.101Z,98195.56
2023-08-11T19:13:27.331Z,98194.50
2023-08-11T19:18:28.612Z,98203.19
2023-08-11T19:23:29.883Z,98206.66
2023-08-11T19:28:32.798Z,98203.28
2023-08-11T19:33:34.280Z,98212.41
2023-08-11T19:38:42.227Z,98218.09
2023-08-11T19:43:43.583Z,98211.06
2023-08-11T19:48:44.886Z,98221.63
2023-08-11T19:53:46.149Z,98222.50
2023-08-11T19:58:47.399Z,98219.56
2023-08-11T20:03:48.689Z,98219.94
2023-08-11T20:08:49.985Z,98208.41
2023-08-11T20:13:51.209Z,98203.41
2023-08-11T20:18:52.505Z,98189.69
2023-08-11T20:23:53.721Z,98200.81
2023-08-11T20:28:55.056Z,98209.16
2023-08-11T20:33:56.358Z,98214.97
2023-08-11T20:38:57.643Z,98204.81
2023-08-11T20:43:58.971Z,98202.84
2023-08-11T20:49:00.219Z,98197.94
2023-08-11T20:54:01.420Z,98204.59
2023-08-11T20:59:02.757Z,98203.69
2023-08-11T21:04:04.057Z,98203.59
2023-08-11T21:09:06.027Z,98203.59
2023-08-11T21:14:07.297Z,98210.63
2023-08-11T21:19:08.763Z,98221.53
2023-08-11T21:24:10.043Z,98224.41
2023-08-11T21:29:11.340Z,98223.09
2023-08-11T21:34:12.608Z,98220.25
2023-08-11T21:39:14.073Z,98223.94
2023-08-11T21:44:16.848Z,98220.13
2023-08-11T21:49:18.056Z,98216.16
2023-08-11T21:54:19.258Z,98211.97
2023-08-11T21:59:20.564Z,98211.94
2023-08-11T22:04:21.948Z,98201.41
2023-08-11T22:09:23.317Z,98212.19
2023-08-11T22:14:24.556Z,98211.72
2023-08-11T22:19:25.783Z,98217.31
2023-08-11T22:24:39.915Z,98218.69
2023-08-11T22:29:45.070Z,98207.97
2023-08-11T22:34:52.712Z,98207.09
2023-08-11T22:39:53.981Z,98218.16
2023-08-11T22:44:55.400Z,98205.06
2023-08-11T22:49:56.809Z,98198.22
2023-08-11T22:54:58.099Z,98195.59
2023-08-11T22:59:59.844Z,98209.19
2023-08-11T23:05:01.121Z,98208.63
2023-08-11T23:10:02.440Z,98201.19
2023-08-11T23:15:04.368Z,98200.31
2023-08-11T23:20:06.631Z,98195.28
2023-08-11T23:25:08.270Z,98196.44
2023-08-11T23:30:10.528Z,98191.06
2023-08-11T23:35:11.779Z,98192.06
2023-08-11T23:40:13.414Z,98191.47
2023-08-11T23:45:14.758Z,98189.81
2023-08-11T23:50:16.013Z,98195.19
2023-08-11T23:55:17.425Z,98186.53
